createdAt,value
2022-11-19T00:00:03.184Z,0
2022-11-19T00:15:02.614Z,0
2022-11-19T00:30:07.929Z,0
2022-11-19T00:45:02.514Z,0
2022-11-19T01:00:03.005Z,0
2022-11-19T01:15:02.373Z,0
2022-11-19T01:30:02.992Z,0
2022-11-19T01:45:02.183Z,0
2022-11-19T02:00:02.565Z,0
2022-11-19T02:15:03.030Z,0
2022-11-19T02:30:02.353Z,0
2022-11-19T02:45:02.781Z,0
2022-11-19T03:00:03.159Z,0
2022-11-19T03:15:02.546Z,0
2022-11-19T03:30:03.027Z,0
2022-11-19T03:45:02.374Z,0
2022-11-19T04:00:03.040Z,0
2022-11-19T04:15:02.259Z,0
2022-11-19T04:30:02.733Z,0
2022-11-19T04:45:03.196Z,0
2022-11-19T05:00:02.648Z,0
2022-11-19T05:15:03.079Z,0
2022-11-19T05:30:02.464Z,0
2022-11-19T05:45:03.069Z,0
2022-11-19T06:00:02.393Z,0
2022-11-19T06:15:02.819Z,0
2022-11-19T06:30:02.264Z,0
2022-11-19T06:45:02.712Z,0
2022-11-19T07:00:03.155Z,0
2022-11-19T07:15:04.540Z,0
2022-11-19T07:30:02.097Z,1
2022-11-19T07:45:02.453Z,5
2022-11-19T08:00:03.095Z,6
2022-11-19T08:15:02.352Z,8
2022-11-19T08:30:02.790Z,22
2022-11-19T08:45:03.191Z,22
2022-11-19T09:00:06.232Z,15
2022-11-19T09:15:03.129Z,49
2022-11-19T09:30:02.508Z,68
2022-11-19T09:45:03.129Z,100
2022-11-19T10:00:02.361Z,106
2022-11-19T10:15:02.836Z,133
2022-11-19T10:30:02.259Z,201
2022-11-19T10:45:02.689Z,276
2022-11-19T11:00:03.148Z,457
2022-11-19T11:15:02.600Z,368
2022-11-19T11:30:03.144Z,312
2022-11-19T11:45:02.473Z,318
2022-11-19T12:00:03.113Z,236
2022-11-19T12:15:02.374Z,338
2022-11-19T12:30:02.795Z,314
2022-11-19T12:45:03.198Z,285
2022-11-19T13:00:02.663Z,252
2022-11-19T13:15:03.176Z,223
2022-11-19T13:30:02.527Z,195
2022-11-19T13:45:03.174Z,170
2022-11-19T14:00:02.395Z,140
2022-11-19T14:15:02.841Z,113
2022-11-19T14:30:02.277Z,81
2022-11-19T14:45:02.713Z,57
2022-11-19T15:00:03.173Z,22
2022-11-19T15:15:02.594Z,0
2022-11-19T15:30:03.256Z,0
2022-11-19T15:45:02.430Z,0
2022-11-19T16:00:02.970Z,0
2022-11-19T16:15:02.343Z,0
2022-11-19T16:30:02.804Z,0
2022-11-19T16:45:03.216Z,0
2022-11-19T17:00:02.689Z,0
2022-11-19T17:15:03.211Z,0
2022-11-19T17:30:02.566Z,0
2022-11-19T17:45:09.216Z,0
2022-11-19T18:00:03.430Z,0
2022-11-19T18:15:02.875Z,0
2022-11-19T18:30:02.296Z,0
2022-11-19T18:45:02.730Z,0
2022-11-19T19:00:03.235Z,0
2022-11-19T19:15:02.600Z,0
2022-11-19T19:30:03.248Z,0
2022-11-19T19:45:02.471Z,0
2022-11-19T20:00:02.910Z,0
2022-11-19T20:15:02.335Z,0
2022-11-19T20:30:03.532Z,0
2022-11-19T20:45:03.262Z,0
2022-11-19T21:00:02.628Z,0
2022-11-19T21:15:03.283Z,0
2022-11-19T21:30:02.518Z,0
2022-11-19T21:45:02.964Z,0
2022-11-19T22:00:02.386Z,0
2022-11-19T22:15:02.852Z,0
2022-11-19T22:30:05.852Z,0
2022-11-19T22:45:02.729Z,0
2022-11-19T23:00:03.304Z,0
2022-11-19T23:30:03.038Z,0
2022-11-19T23:45:02.452Z,0
